createdAt,value
2023-01-19T00:00:28.593Z,-1.45
2023-01-19T00:02:55.028Z,-1.53
2023-01-19T00:05:21.682Z,-1.62
2023-01-19T00:07:48.047Z,-1.58
2023-01-19T00:10:14.622Z,-1.68
2023-01-19T00:12:41.050Z,-1.72
2023-01-19T00:15:08.134Z,-1.78
2023-01-19T00:17:34.469Z,-1.82
2023-01-19T00:20:00.875Z,-1.88
2023-01-19T00:22:27.211Z,-1.90
2023-01-19T00:24:53.590Z,-1.87
2023-01-19T00:27:20.007Z,-1.88
2023-01-19T00:29:46.461Z,-1.87
2023-01-19T00:32:12.898Z,-1.90
2023-01-19T00:34:49.584Z,-1.93
2023-01-19T00:37:16.988Z,-1.93
2023-01-19T00:39:43.787Z,-1.98
2023-01-19T00:42:32.188Z,-1.98
2023-01-19T00:44:58.673Z,-1.97
2023-01-19T00:47:25.474Z,-1.99
2023-01-19T00:49:51.967Z,-1.97
2023-01-19T00:52:18.376Z,-1.98
2023-01-19T00:54:44.726Z,-1.97
2023-01-19T00:57:11.131Z,-1.97
2023-01-19T00:59:37.596Z,-1.95
2023-01-19T01:02:04.149Z,-1.90
2023-01-19T01:04:31.064Z,-1.85
2023-01-19T01:06:57.460Z,-1.78
2023-01-19T01:09:24.229Z,-1.87
2023-01-19T01:11:50.687Z,-1.87
2023-01-19T01:14:18.137Z,-1.81
2023-01-19T01:16:44.616Z,-1.79
2023-01-19T01:19:11.038Z,-1.76
2023-01-19T01:21:37.517Z,-1.65
2023-01-19T01:24:04.380Z,-1.64
2023-01-19T01:26:30.875Z,-1.61
2023-01-19T01:28:57.266Z,-1.64
2023-01-19T01:31:23.705Z,-1.64
2023-01-19T01:33:50.196Z,-1.64
2023-01-19T01:36:16.624Z,-1.64
2023-01-19T01:38:43.044Z,-1.64
2023-01-19T01:41:09.552Z,-1.70
2023-01-19T01:43:58.589Z,-1.67
2023-01-19T01:46:27.041Z,-1.67
2023-01-19T01:49:07.633Z,-1.64
2023-01-19T01:51:44.593Z,-1.68
2023-01-19T01:54:28.712Z,-1.66
2023-01-19T01:57:00.409Z,-1.68
2023-01-19T01:59:34.626Z,-1.64
2023-01-19T02:02:25.956Z,-1.72
2023-01-19T02:04:59.126Z,-1.78
2023-01-19T02:08:17.146Z,-1.76
2023-01-19T02:11:02.933Z,-1.78
2023-01-19T02:13:30.902Z,-1.72
2023-01-19T02:16:00.945Z,-1.71
2023-01-19T02:18:29.606Z,-1.75
2023-01-19T02:21:38.039Z,-1.69
2023-01-19T02:24:04.915Z,-1.65
2023-01-19T02:26:44.295Z,-1.64
2023-01-19T02:29:13.310Z,-1.75
2023-01-19T02:31:40.902Z,-1.75
2023-01-19T02:34:10.957Z,-1.78
2023-01-19T02:37:12.630Z,-1.83
2023-01-19T02:39:43.152Z,-1.88
2023-01-19T02:42:18.366Z,-1.83
2023-01-19T02:44:48.921Z,-1.85
2023-01-19T02:47:15.929Z,-1.80
2023-01-19T02:49:42.416Z,-1.70
2023-01-19T02:52:17.635Z,-1.74
2023-01-19T02:55:15.226Z,-1.74
2023-01-19T02:58:11.421Z,-1.80
2023-01-19T03:00:52.193Z,-1.87
2023-01-19T03:03:32.735Z,-1.84
2023-01-19T03:06:12.396Z,-1.83
2023-01-19T03:09:08.689Z,-1.79
2023-01-19T03:11:42.404Z,-1.81
2023-01-19T03:14:18.380Z,-1.79
2023-01-19T03:16:55.138Z,-1.82
2023-01-19T03:19:34.758Z,-1.85
2023-01-19T03:22:07.312Z,-1.92
2023-01-19T03:24:39.958Z,-1.88
2023-01-19T03:27:12.839Z,-1.85
2023-01-19T03:29:44.967Z,-1.87
2023-01-19T03:32:16.377Z,-1.80
2023-01-19T03:34:43.999Z,-1.78
2023-01-19T03:37:13.410Z,-1.80
2023-01-19T03:39:40.001Z,-1.76
2023-01-19T03:42:11.639Z,-1.73
2023-01-19T03:44:40.287Z,-1.75
2023-01-19T03:47:10.372Z,-1.75
2023-01-19T03:49:38.307Z,-1.82
2023-01-19T03:52:05.204Z,-1.76
2023-01-19T03:54:32.024Z,-1.82
2023-01-19T03:56:58.823Z,-1.78
2023-01-19T03:59:25.207Z,-1.81
2023-01-19T04:01:52.297Z,-1.89
2023-01-19T04:04:18.704Z,-1.98
2023-01-19T04:06:45.115Z,-1.88
2023-01-19T04:09:11.629Z,-1.88
2023-01-19T04:11:38.064Z,-1.92
2023-01-19T04:14:04.502Z,-1.98
2023-01-19T04:16:30.914Z,-1.97
2023-01-19T04:18:57.311Z,-2.10
2023-01-19T04:21:23.750Z,-2.13
2023-01-19T04:23:50.130Z,-2.18
2023-01-19T04:26:16.524Z,-2.22
2023-01-19T04:28:42.905Z,-2.32
2023-01-19T04:31:09.408Z,-2.38
2023-01-19T04:33:35.911Z,-2.45
2023-01-19T04:36:02.452Z,-2.44
2023-01-19T04:38:28.808Z,-2.60
2023-01-19T04:40:55.327Z,-2.62
2023-01-19T04:43:22.924Z,-2.66
2023-01-19T04:45:50.153Z,-2.65
2023-01-19T04:48:18.339Z,-2.69
2023-01-19T04:50:44.743Z,-2.75
2023-01-19T04:53:12.331Z,-2.83
2023-01-19T04:55:38.820Z,-2.79
2023-01-19T04:58:05.412Z,-2.82
2023-01-19T05:00:31.761Z,-2.86
2023-01-19T05:02:58.406Z,-2.86
2023-01-19T05:05:25.052Z,-2.88
2023-01-19T05:07:51.434Z,-2.97
2023-01-19T05:10:17.999Z,-3.05
2023-01-19T05:12:44.465Z,-3.05
2023-01-19T05:15:11.174Z,-3.05
2023-01-19T05:17:37.860Z,-3.07
2023-01-19T05:20:04.801Z,-3.03
2023-01-19T05:22:31.529Z,-3.11
2023-01-19T05:24:58.287Z,-3.13
2023-01-19T05:27:24.725Z,-3.15
2023-01-19T05:29:51.143Z,-3.21
2023-01-19T05:32:17.502Z,-3.20
2023-01-19T05:34:43.908Z,-3.19
2023-01-19T05:37:10.903Z,-3.20
2023-01-19T05:39:37.330Z,-3.31
2023-01-19T05:42:03.933Z,-3.31
2023-01-19T05:44:30.313Z,-3.36
2023-01-19T05:46:57.067Z,-3.34
2023-01-19T05:49:23.510Z,-3.36
2023-01-19T05:51:50.002Z,-3.38
2023-01-19T05:54:16.487Z,-3.39
2023-01-19T05:56:42.929Z,-3.40
2023-01-19T05:59:10.390Z,-3.39
2023-01-19T06:01:39.849Z,-3.43
2023-01-19T06:04:06.714Z,-3.45
2023-01-19T06:06:33.296Z,-3.45
2023-01-19T06:08:59.693Z,-3.52
2023-01-19T06:11:26.197Z,-3.57
2023-01-19T06:13:52.820Z,-3.48
2023-01-19T06:16:19.433Z,-3.51
2023-01-19T06:18:46.112Z,-3.59
2023-01-19T06:21:14.215Z,-3.63
2023-01-19T06:23:41.009Z,-3.60
2023-01-19T06:26:07.974Z,-3.65
2023-01-19T06:28:34.789Z,-3.73
2023-01-19T06:31:01.821Z,-3.83
2023-01-19T06:33:28.639Z,-3.85
2023-01-19T06:35:55.540Z,-3.88
2023-01-19T06:38:22.292Z,-3.92
2023-01-19T06:40:54.588Z,-3.99
2023-01-19T06:43:21.878Z,-4.01
2023-01-19T06:45:48.858Z,-4.07
2023-01-19T06:48:15.555Z,-4.08
2023-01-19T06:50:45.171Z,-4.15
2023-01-19T06:53:12.232Z,-4.17
2023-01-19T06:55:39.178Z,-4.18
2023-01-19T06:58:06.432Z,-4.16
2023-01-19T07:00:32.911Z,-4.20
2023-01-19T07:02:59.628Z,-4.20
2023-01-19T07:05:26.262Z,-4.19
2023-01-19T07:07:54.420Z,-4.18
2023-01-19T07:10:21.322Z,-4.19
2023-01-19T07:12:47.937Z,-4.15
2023-01-19T07:15:16.829Z,-4.17
2023-01-19T07:17:43.591Z,-4.15
2023-01-19T07:20:12.941Z,-4.15
2023-01-19T07:22:39.583Z,-4.15
2023-01-19T07:25:06.257Z,-4.15
2023-01-19T07:27:32.670Z,-4.09
2023-01-19T07:30:01.019Z,-4.05
2023-01-19T07:32:29.020Z,-3.96
2023-01-19T07:34:55.713Z,-3.97
2023-01-19T07:37:22.416Z,-3.97
2023-01-19T07:39:48.860Z,-3.97
2023-01-19T07:42:15.671Z,-4.01
2023-01-19T07:44:42.292Z,-3.97
2023-01-19T07:47:11.159Z,-3.92
2023-01-19T07:49:37.514Z,-3.85
2023-01-19T07:52:04.020Z,-3.83
2023-01-19T07:54:30.378Z,-3.83
2023-01-19T07:56:56.765Z,-3.77
2023-01-19T07:59:23.405Z,-3.68
2023-01-19T08:01:49.836Z,-3.71
2023-01-19T08:04:16.267Z,-3.66
2023-01-19T08:06:45.612Z,-3.65
2023-01-19T08:09:11.986Z,-3.61
2023-01-19T08:11:38.529Z,-3.61
2023-01-19T08:14:07.714Z,-3.58
2023-01-19T08:16:34.540Z,-3.48
2023-01-19T08:19:00.981Z,-3.41
2023-01-19T08:21:27.780Z,-3.41
2023-01-19T08:23:55.018Z,-3.40
2023-01-19T08:26:27.790Z,-3.35
2023-01-19T08:28:54.946Z,-3.30
2023-01-19T08:31:24.509Z,-3.28
2023-01-19T08:33:51.629Z,-3.21
2023-01-19T08:36:18.552Z,-3.20
2023-01-19T08:38:45.940Z,-3.22
2023-01-19T08:41:12.785Z,-3.03
2023-01-19T08:43:39.245Z,-3.02
2023-01-19T08:46:06.707Z,-2.99
2023-01-19T08:48:33.460Z,-2.97
2023-01-19T08:51:00.404Z,-2.80
2023-01-19T08:53:27.018Z,-2.77
2023-01-19T08:55:57.454Z,-2.68
2023-01-19T08:58:23.872Z,-2.46
2023-01-19T09:00:52.447Z,-2.34
2023-01-19T09:03:20.960Z,-2.29
2023-01-19T09:05:47.374Z,-2.16
2023-01-19T09:08:14.514Z,-2.08
2023-01-19T09:10:47.168Z,-2.10
2023-01-19T09:13:14.054Z,-2.08
2023-01-19T09:15:41.292Z,-2.07
2023-01-19T09:18:13.377Z,-2.04
2023-01-19T09:20:44.448Z,-1.97
2023-01-19T09:23:12.204Z,-1.99
2023-01-19T09:25:39.896Z,-1.90
2023-01-19T09:28:09.019Z,-1.84
2023-01-19T09:30:37.388Z,-1.89
2023-01-19T09:33:08.243Z,-1.83
2023-01-19T09:35:34.936Z,-1.80
2023-01-19T09:38:01.733Z,-1.82
2023-01-19T09:40:29.066Z,-1.81
2023-01-19T09:43:11.835Z,-1.83
2023-01-19T09:45:51.783Z,-1.67
2023-01-19T09:48:26.249Z,-1.66
2023-01-19T09:50:55.822Z,-1.72
2023-01-19T09:53:42.409Z,-1.70
2023-01-19T09:56:15.125Z,-1.64
2023-01-19T09:58:42.200Z,-1.53
2023-01-19T10:01:34.849Z,-1.51
2023-01-19T10:04:24.633Z,-1.40
2023-01-19T10:06:54.673Z,-1.32
2023-01-19T10:09:49.230Z,-1.30
2023-01-19T10:12:32.519Z,-1.24
2023-01-19T10:15:41.706Z,-1.15
2023-01-19T10:18:33.103Z,-1.08
2023-01-19T10:21:08.644Z,-1.08
2023-01-19T10:23:43.702Z,-0.99
2023-01-19T10:26:33.228Z,-1.04
2023-01-19T10:29:17.506Z,-1.03
2023-01-19T10:31:46.034Z,-1.07
2023-01-19T10:34:20.957Z,-1.09
2023-01-19T10:36:53.252Z,-1.03
2023-01-19T10:39:20.068Z,-0.99
2023-01-19T10:41:50.775Z,-0.97
2023-01-19T10:44:25.765Z,-0.86
2023-01-19T10:46:55.352Z,-0.89
2023-01-19T10:49:29.920Z,-0.89
2023-01-19T10:51:58.850Z,-0.88
2023-01-19T10:54:27.627Z,-0.87
2023-01-19T10:57:01.267Z,-0.80
2023-01-19T10:59:48.657Z,-0.74
2023-01-19T11:02:28.567Z,-0.69
2023-01-19T11:05:00.945Z,-0.60
2023-01-19T11:07:33.420Z,-0.57
2023-01-19T11:10:21.924Z,-0.46
2023-01-19T11:13:00.950Z,-0.33
2023-01-19T11:15:44.520Z,-0.24
2023-01-19T11:18:25.447Z,-0.22
2023-01-19T11:20:55.227Z,-0.17
2023-01-19T11:23:24.848Z,-0.17
2023-01-19T11:25:52.823Z,-0.17
2023-01-19T11:28:21.807Z,-0.09
2023-01-19T11:31:02.028Z,0.00
2023-01-19T11:33:37.624Z,0.03
2023-01-19T11:36:15.266Z,0.07
2023-01-19T11:38:43.814Z,0.15
2023-01-19T11:41:18.731Z,0.07
2023-01-19T11:43:49.346Z,0.24
2023-01-19T11:46:17.527Z,0.30
2023-01-19T11:48:57.894Z,0.39
2023-01-19T11:51:27.804Z,0.48
2023-01-19T11:53:54.297Z,0.55
2023-01-19T11:56:25.861Z,0.65
2023-01-19T11:58:52.408Z,0.73
2023-01-19T12:01:33.077Z,0.82
2023-01-19T12:04:17.132Z,0.95
2023-01-19T12:06:48.395Z,0.95
2023-01-19T12:09:32.818Z,0.92
2023-01-19T12:12:04.495Z,0.96
2023-01-19T12:14:53.781Z,0.89
2023-01-19T12:17:45.181Z,0.85
2023-01-19T12:20:52.848Z,0.79
2023-01-19T12:23:54.180Z,0.72
2023-01-19T12:26:42.447Z,0.76
2023-01-19T12:29:21.834Z,0.71
2023-01-19T12:32:13.396Z,0.70
2023-01-19T12:34:40.921Z,0.64
2023-01-19T12:37:27.468Z,0.62
2023-01-19T12:39:55.934Z,0.58
2023-01-19T12:42:22.902Z,0.47
2023-01-19T12:44:53.592Z,0.45
2023-01-19T12:47:22.725Z,0.53
2023-01-19T12:49:56.399Z,0.57
2023-01-19T12:52:33.968Z,0.58
2023-01-19T12:55:36.490Z,0.60
2023-01-19T12:58:23.369Z,0.63
2023-01-19T13:01:10.637Z,0.62
2023-01-19T13:03:59.636Z,0.66
2023-01-19T13:06:48.100Z,0.60
2023-01-19T13:09:33.915Z,0.60
2023-01-19T13:12:15.552Z,0.61
2023-01-19T13:14:43.594Z,0.52
2023-01-19T13:17:22.906Z,0.49
2023-01-19T13:19:54.710Z,0.46
2023-01-19T13:23:11.656Z,0.49
2023-01-19T13:25:38.179Z,0.44
2023-01-19T13:28:09.283Z,0.41
2023-01-19T13:30:39.687Z,0.35
2023-01-19T13:33:23.322Z,0.35
2023-01-19T13:35:58.443Z,0.25
2023-01-19T13:38:27.280Z,0.26
2023-01-19T13:40:55.676Z,0.33
2023-01-19T13:43:29.033Z,0.33
2023-01-19T13:45:56.109Z,0.17
2023-01-19T13:48:24.628Z,0.15
2023-01-19T13:51:05.812Z,0.16
2023-01-19T13:53:33.035Z,0.06
2023-01-19T13:56:16.498Z,0.06
2023-01-19T13:58:43.005Z,0.08
2023-01-19T14:01:23.066Z,0.04
2023-01-19T14:03:52.284Z,0.11
2023-01-19T14:06:39.639Z,0.15
2023-01-19T14:09:19.983Z,0.25
2023-01-19T14:12:04.663Z,0.32
2023-01-19T14:14:31.408Z,0.23
2023-01-19T14:16:57.849Z,0.21
2023-01-19T14:19:24.422Z,0.22
2023-01-19T14:22:01.931Z,0.24
2023-01-19T14:24:32.087Z,0.24
2023-01-19T14:27:24.025Z,0.26
2023-01-19T14:29:53.666Z,0.22
2023-01-19T14:32:24.714Z,0.17
2023-01-19T14:35:12.461Z,0.16
2023-01-19T14:37:49.490Z,0.12
2023-01-19T14:40:21.470Z,0.02
2023-01-19T14:42:54.589Z,-0.04
2023-01-19T14:45:26.089Z,0.03
2023-01-19T14:48:01.135Z,0.03
2023-01-19T14:50:32.830Z,0.05
2023-01-19T14:53:15.032Z,0.08
2023-01-19T14:55:49.306Z,0.01
2023-01-19T14:58:18.604Z,-0.01
2023-01-19T15:00:46.589Z,0.03
2023-01-19T15:03:13.331Z,0.02
2023-01-19T15:05:42.134Z,0.04
2023-01-19T15:08:14.650Z,0.05
2023-01-19T15:10:41.462Z,-0.03
2023-01-19T15:13:17.449Z,0.00
2023-01-19T15:15:43.839Z,-0.03
2023-01-19T15:18:15.595Z,-0.06
2023-01-19T15:20:41.945Z,-0.14
2023-01-19T15:23:10.780Z,-0.16
2023-01-19T15:25:39.402Z,-0.20
2023-01-19T15:28:12.092Z,-0.30
2023-01-19T15:30:39.277Z,-0.34
2023-01-19T15:33:05.789Z,-0.32
2023-01-19T15:35:32.151Z,-0.31
2023-01-19T15:37:58.573Z,-0.36
2023-01-19T15:40:25.020Z,-0.34
2023-01-19T15:42:51.461Z,-0.35
2023-01-19T15:45:38.419Z,-0.31
2023-01-19T15:48:10.545Z,-0.40
2023-01-19T15:50:40.819Z,-0.42
2023-01-19T15:53:07.813Z,-0.47
2023-01-19T15:55:34.230Z,-0.49
2023-01-19T15:58:03.462Z,-0.48
2023-01-19T16:00:31.627Z,-0.43
2023-01-19T16:02:58.912Z,-0.39
2023-01-19T16:05:37.438Z,-0.40
2023-01-19T16:08:08.582Z,-0.46
2023-01-19T16:10:35.783Z,-0.48
2023-01-19T16:13:03.979Z,-0.51
2023-01-19T16:15:30.493Z,-0.51
2023-01-19T16:17:56.857Z,-0.58
2023-01-19T16:20:23.226Z,-0.59
2023-01-19T16:22:49.593Z,-0.67
2023-01-19T16:25:15.980Z,-0.68
2023-01-19T16:27:42.591Z,-0.66
2023-01-19T16:30:11.854Z,-0.66
2023-01-19T16:32:38.729Z,-0.66
2023-01-19T16:35:05.609Z,-0.71
2023-01-19T16:37:32.057Z,-0.68
2023-01-19T16:39:58.652Z,-0.69
2023-01-19T16:42:25.270Z,-0.69
2023-01-19T16:44:51.741Z,-0.76
2023-01-19T16:47:18.213Z,-0.76
2023-01-19T16:49:44.691Z,-0.78
2023-01-19T16:52:11.435Z,-0.81
2023-01-19T16:54:41.220Z,-0.83
2023-01-19T16:57:07.636Z,-0.79
2023-01-19T16:59:34.037Z,-0.71
2023-01-19T17:02:00.644Z,-0.65
2023-01-19T17:04:27.316Z,-0.66
2023-01-19T17:06:54.768Z,-0.67
2023-01-19T17:09:21.365Z,-0.65
2023-01-19T17:11:48.010Z,-0.67
2023-01-19T17:14:17.347Z,-0.68
2023-01-19T17:16:44.172Z,-0.72
2023-01-19T17:19:15.003Z,-0.74
2023-01-19T17:21:43.351Z,-0.73
2023-01-19T17:24:10.646Z,-0.77
2023-01-19T17:26:37.120Z,-0.80
2023-01-19T17:29:08.431Z,-0.82
2023-01-19T17:31:35.115Z,-0.87
2023-01-19T17:34:02.028Z,-0.85
2023-01-19T17:36:30.163Z,-0.86
2023-01-19T17:38:58.972Z,-0.87
2023-01-19T17:41:40.714Z,-0.79
2023-01-19T17:44:07.442Z,-0.85
2023-01-19T17:46:38.098Z,-0.84
2023-01-19T17:49:06.695Z,-0.86
2023-01-19T17:51:33.145Z,-0.87
2023-01-19T17:53:59.599Z,-0.80
2023-01-19T17:56:29.623Z,-0.76
2023-01-19T17:58:57.566Z,-0.81
2023-01-19T18:01:29.491Z,-0.81
2023-01-19T18:03:56.916Z,-0.82
2023-01-19T18:06:23.409Z,-0.85
2023-01-19T18:08:50.362Z,-0.81
2023-01-19T18:11:19.274Z,-0.88
2023-01-19T18:13:48.033Z,-0.76
2023-01-19T18:16:17.235Z,-0.75
2023-01-19T18:18:44.269Z,-0.75
2023-01-19T18:21:13.134Z,-0.80
2023-01-19T18:23:40.313Z,-0.75
2023-01-19T18:26:09.404Z,-0.79
2023-01-19T18:28:36.199Z,-0.85
2023-01-19T18:31:06.989Z,-0.79
2023-01-19T18:33:34.062Z,-0.77
2023-01-19T18:36:00.542Z,-0.85
2023-01-19T18:38:27.259Z,-0.77
2023-01-19T18:41:21.402Z,-0.80
2023-01-19T18:43:48.445Z,-0.85
2023-01-19T18:46:15.488Z,-0.79
2023-01-19T18:48:41.921Z,-0.77
2023-01-19T18:51:10.447Z,-0.76
2023-01-19T18:53:37.610Z,-0.78
2023-01-19T18:56:04.662Z,-0.81
2023-01-19T18:58:32.705Z,-0.87
2023-01-19T19:01:00.789Z,-0.88
2023-01-19T19:03:28.306Z,-0.85
2023-01-19T19:05:54.969Z,-0.81
2023-01-19T19:08:21.375Z,-0.82
2023-01-19T19:10:47.973Z,-0.81
2023-01-19T19:13:16.070Z,-0.84
2023-01-19T19:15:44.255Z,-0.78
2023-01-19T19:18:13.563Z,-0.81
2023-01-19T19:20:40.210Z,-0.85
2023-01-19T19:23:06.773Z,-0.86
2023-01-19T19:25:33.453Z,-0.88
2023-01-19T19:27:59.917Z,-0.93
2023-01-19T19:30:26.609Z,-0.89
2023-01-19T19:32:54.446Z,-0.90
2023-01-19T19:35:21.171Z,-0.88
2023-01-19T19:37:48.854Z,-0.89
2023-01-19T19:40:15.989Z,-0.93
2023-01-19T19:42:42.362Z,-0.94
2023-01-19T19:45:09.351Z,-1.00
2023-01-19T19:47:35.708Z,-0.98
2023-01-19T19:50:02.099Z,-1.01
2023-01-19T19:52:28.519Z,-1.07
2023-01-19T19:54:54.953Z,-1.04
2023-01-19T19:57:21.320Z,-1.07
2023-01-19T19:59:47.733Z,-1.07
2023-01-19T20:02:14.152Z,-1.11
2023-01-19T20:04:40.523Z,-1.12
2023-01-19T20:07:06.870Z,-1.22
2023-01-19T20:09:33.253Z,-1.26
2023-01-19T20:11:59.694Z,-1.32
2023-01-19T20:14:26.063Z,-1.38
2023-01-19T20:16:53.001Z,-1.36
2023-01-19T20:19:19.589Z,-1.41
2023-01-19T20:21:45.996Z,-1.43
2023-01-19T20:24:18.885Z,-1.47
2023-01-19T20:26:51.728Z,-1.45
2023-01-19T20:29:20.054Z,-1.54
2023-01-19T20:31:53.771Z,-1.54
2023-01-19T20:34:24.122Z,-1.57
2023-01-19T20:36:53.118Z,-1.60
2023-01-19T20:39:21.555Z,-1.62
2023-01-19T20:41:50.176Z,-1.67
2023-01-19T20:44:20.261Z,-1.65
2023-01-19T20:46:47.359Z,-1.58
2023-01-19T20:49:14.071Z,-1.64
2023-01-19T20:51:45.105Z,-1.64
2023-01-19T20:54:13.406Z,-1.64
2023-01-19T20:56:41.526Z,-1.60
2023-01-19T20:59:09.347Z,-1.63
2023-01-19T21:01:36.285Z,-1.61
2023-01-19T21:04:02.698Z,-1.60
2023-01-19T21:06:29.067Z,-1.64
2023-01-19T21:08:55.704Z,-1.65
2023-01-19T21:11:23.932Z,-1.64
2023-01-19T21:13:56.445Z,-1.64
2023-01-19T21:16:28.392Z,-1.61
2023-01-19T21:18:55.085Z,-1.59
2023-01-19T21:21:30.480Z,-1.57
2023-01-19T21:23:59.049Z,-1.55
2023-01-19T21:26:25.689Z,-1.55
2023-01-19T21:28:52.191Z,-1.57
2023-01-19T21:31:18.749Z,-1.62
2023-01-19T21:33:45.366Z,-1.58
2023-01-19T21:36:11.925Z,-1.54
2023-01-19T21:38:39.068Z,-1.50
2023-01-19T21:41:11.898Z,-1.51
2023-01-19T21:43:41.587Z,-1.51
2023-01-19T21:46:20.100Z,-1.40
2023-01-19T21:48:47.352Z,-1.40
2023-01-19T21:51:14.748Z,-1.46
2023-01-19T21:53:41.446Z,-1.46
2023-01-19T21:56:09.454Z,-1.54
2023-01-19T21:58:36.198Z,-1.63
2023-01-19T22:01:05.063Z,-1.67
2023-01-19T22:03:31.696Z,-1.74
2023-01-19T22:06:07.168Z,-1.69
2023-01-19T22:08:34.104Z,-1.70
2023-01-19T22:11:05.471Z,-1.69
2023-01-19T22:13:32.307Z,-1.69
2023-01-19T22:16:00.762Z,-1.71
2023-01-19T22:18:27.133Z,-1.71
2023-01-19T22:20:53.741Z,-1.72
2023-01-19T22:23:20.295Z,-1.74
2023-01-19T22:25:46.800Z,-1.75
2023-01-19T22:28:13.206Z,-1.73
2023-01-19T22:30:39.672Z,-1.76
2023-01-19T22:33:06.711Z,-1.72
2023-01-19T22:35:33.070Z,-1.74
2023-01-19T22:37:59.437Z,-1.70
2023-01-19T22:40:25.770Z,-1.70
2023-01-19T22:42:52.139Z,-1.59
2023-01-19T22:45:18.474Z,-1.59
2023-01-19T22:47:46.182Z,-1.68
2023-01-19T22:50:12.536Z,-1.72
2023-01-19T22:52:38.928Z,-1.71
2023-01-19T22:55:05.740Z,-1.68
2023-01-19T22:57:36.532Z,-1.68
2023-01-19T23:00:08.490Z,-1.64
2023-01-19T23:02:34.923Z,-1.65
2023-01-19T23:05:01.287Z,-1.67
2023-01-19T23:07:27.621Z,-1.69
2023-01-19T23:09:53.967Z,-1.69
2023-01-19T23:12:20.378Z,-1.69
2023-01-19T23:14:46.809Z,-1.71
2023-01-19T23:17:13.256Z,-1.68
2023-01-19T23:19:39.604Z,-1.67
2023-01-19T23:22:06.013Z,-1.67
2023-01-19T23:24:32.496Z,-1.60
2023-01-19T23:26:58.972Z,-1.58
2023-01-19T23:29:25.307Z,-1.57
2023-01-19T23:31:53.344Z,-1.53
2023-01-19T23:34:19.679Z,-1.54
2023-01-19T23:36:46.119Z,-1.60
2023-01-19T23:39:20.900Z,-1.59
2023-01-19T23:41:48.670Z,-1.60
2023-01-19T23:44:17.394Z,-1.54
2023-01-19T23:46:44.229Z,-1.57
2023-01-19T23:49:11.459Z,-1.58
2023-01-19T23:51:39.444Z,-1.59
2023-01-19T23:54:05.840Z,-1.62
2023-01-19T23:56:36.019Z,-1.62
2023-01-19T23:59:08.147Z,-1.59
